Ottoman Nobility — TCDA2 — position and weather

sailwx.info

Track history (hours):
 
Tides and Currents Weather Stations Pressure Air Temp Water Temp Dewpoint Dewpoint Depression Visibility Wind Speed Wind Dir Waves Ship Positions

Ottoman Nobility

Last reported at 2017-Apr-20 08:04 UTC. Time now 2017-Apr-26 19:46 UTC.
Position N 30°52' E 032°19'.

; draft 15.7 m.

Type: Ship. MMSI: 271000773.

Date/timePositionNaut miles runAvg speedWind from/ knotsBaromVisibWave heightAir tempDewpointWater temp
2017-Apr-20 08:04N 30°52' E 032°19'1 9.0
2017-Apr-20 08:01N 30°53' E 032°19'  
2017-Apr-16 12:41N 36°16' E 015°02'212.1
2017-Apr-16 12:30N 36°17' E 014°60'612.1
2017-Apr-16 12:00N 36°19' E 014°52'712.1
2017-Apr-16 11:27N 36°21' E 014°45'511.9
2017-Apr-16 11:00N 36°23' E 014°39'611.8
2017-Apr-16 10:30N 36°25' E 014°32'611.8
2017-Apr-16 10:00N 36°26' E 014°25'612.0
2017-Apr-16 09:30N 36°28' E 014°17'611.9
2017-Apr-16 09:00N 36°30' E 014°10'612.0
2017-Apr-16 08:30N 36°31' E 014°03'712.2
2017-Apr-16 07:56N 36°34' E 013°55'512.2
2017-Apr-16 07:30N 36°35' E 013°49'611.9
2017-Apr-16 07:00N 36°37' E 013°42'611.7
2017-Apr-16 06:30N 36°39' E 013°35'611.6
2017-Apr-16 06:00N 36°40' E 013°28'611.4
2017-Apr-16 05:28N 36°42' E 013°20'511.6
2017-Apr-16 05:00N 36°44' E 013°14'611.8
2017-Apr-16 04:29N 36°46' E 013°07'812.1
2017-Apr-16 03:50N 36°48' E 012°57'512.1
2017-Apr-16 03:26N 36°49' E 012°52'512.2
2017-Apr-16 03:00N 36°51' E 012°45'912.4
2017-Apr-16 02:18N 36°53' E 012°35'712.3
2017-Apr-16 01:43N 36°56' E 012°26'312.1
2017-Apr-16 01:30N 36°57' E 012°23'611.9
2017-Apr-16 01:00N 36°59' E 012°16'611.6
2017-Apr-16 00:30N 36°59' E 012°09'611.7
2017-Apr-16 00:00N 37°02' E 012°02'3011.8
2017-Apr-15 21:29N 37°15' E 011°29'611.8
2017-Apr-15 21:00N 37°17' E 011°22'611.9
2017-Apr-15 20:30N 37°20' E 011°16'1211.7
2017-Apr-15 19:31N 37°24' E 011°02'011.6
2017-Apr-15 19:29N 37°24' E 011°02'611.6
2017-Apr-15 19:00N 37°25' E 010°55'611.4
2017-Apr-15 18:29N 37°27' E 010°48'611.3
2017-Apr-15 18:00N 37°29' E 010°41'711.3
2017-Apr-15 17:24N 37°30' E 010°33'611.6
2017-Apr-15 16:54N 37°32' E 010°26'4611.7
2017-Apr-15 12:56N 37°38' E 009°28'512.2
2017-Apr-15 12:29N 37°40' E 009°21'2312.2
2017-Apr-15 10:35N 37°44' E 008°52'312.0
2017-Apr-15 10:20N 37°43' E 008°49'412.0
2017-Apr-15 09:59N 37°42' E 008°44'611.9
2017-Apr-15 09:30N 37°41' E 008°36'612.0
2017-Apr-15 09:00N 37°41' E 008°29'911.9
2017-Apr-15 08:16N 37°40' E 008°18'10911.9
2017-Apr-14 23:10N 37°31' E 006°01'211.8
2017-Apr-14 23:00N 37°31' E 005°59'1012.0
2017-Apr-14 22:09N 37°30' E 005°46'9112.0
2017-Apr-14 14:33N 37°21' E 003°51'112.2
2017-Apr-14 14:30N 37°21' E 003°51'1312.1
2017-Apr-14 13:25N 37°19' E 003°34'612.2
2017-Apr-14 12:57N 37°18' E 003°27'612.2
2017-Apr-14 12:30N 37°16' E 003°21'612.1
2017-Apr-14 12:00N 37°15' E 003°13'612.2
2017-Apr-14 11:30N 37°14' E 003°06'612.1
2017-Apr-14 11:00N 37°13' E 002°58'611.8
2017-Apr-14 10:30N 37°12' E 002°51'611.7
2017-Apr-14 10:00N 37°10' E 002°44'611.8
2017-Apr-14 09:30N 37°09' E 002°37'612.1
2017-Apr-14 09:00N 37°08' E 002°29'612.2
2017-Apr-14 08:30N 37°07' E 002°22'612.3
2017-Apr-14 08:00N 37°06' E 002°14'612.3
2017-Apr-14 07:30N 37°04' E 002°07'612.3
2017-Apr-14 07:00N 37°03' E 001°59'912.3
2017-Apr-14 06:16N 37°02' E 001°48'312.2
2017-Apr-14 06:00N 37°01' E 001°44'712.2
2017-Apr-14 05:28N 36°60' E 001°36'612.1
2017-Apr-14 05:00N 36°58' E 001°29'612.1
2017-Apr-14 04:30N 36°57' E 001°22'612.1
2017-Apr-14 04:00N 36°56' E 001°14'612.1
2017-Apr-14 03:30N 36°54' E 001°07'612.0
2017-Apr-14 03:00N 36°53' E 000°60'612.4
2017-Apr-14 02:30N 36°52' E 000°52'612.7
2017-Apr-14 02:00N 36°52' E 000°44'612.7
2017-Apr-14 01:30N 36°51' E 000°36'612.5
2017-Apr-14 01:00N 36°50' E 000°29'612.3
2017-Apr-14 00:30N 36°48' E 000°21'612.4
2017-Apr-13 23:59N 36°47' E 000°13'612.1
2017-Apr-13 23:30N 36°45' E 000°06'3911.7
2017-Apr-13 20:13N 36°37' W 000°41'312.0
2017-Apr-13 19:58N 36°36' W 000°44'4911.8
2017-Apr-13 15:47N 36°26' W 001°45'511.2
2017-Apr-13 15:19N 36°25' W 001°51'411.2
2017-Apr-13 14:59N 36°24' W 001°55'9611.5
2017-Apr-13 06:35N 36°10' W 003°54'112.6
2017-Apr-13 06:30N 36°10' W 003°55'612.6
2017-Apr-13 06:00N 36°09' W 004°02'612.8
2017-Apr-13 05:31N 36°08' W 004°10'612.9
2017-Apr-13 05:01N 36°07' W 004°18'612.8
2017-Apr-13 04:30N 36°06' W 004°26'612.4
2017-Apr-13 04:00N 36°06' W 004°34'2012.4
2017-Apr-13 02:25N 36°02' W 004°58'512.9
2017-Apr-13 02:00N 36°01' W 005°04'713.9
2017-Apr-13 01:31N 36°01' W 005°13'713.5
2017-Apr-13 01:00N 35°58' W 005°21'613.1
2017-Apr-13 00:31N 35°57' W 005°28'612.4
2017-Apr-13 00:00N 35°55' W 005°36'510.8
2017-Apr-12 23:30N 35°54' W 005°42'5 9.6
2017-Apr-12 23:00N 35°54' W 005°48'710.4
2017-Apr-12 22:17N 35°54' W 005°57'3711.6
2017-Apr-12 19:04N 35°59' W 006°43'1111.9
2017-Apr-12 18:07N 36°02' W 006°57'111.9
2017-Apr-12 18:00N 36°03' W 006°58'711.8
2017-Apr-12 17:25N 36°04' W 007°07'511.5
2017-Apr-12 16:59N 36°05' W 007°13'811.8
2017-Apr-12 16:18N 36°07' W 007°23'411.7
2017-Apr-12 15:57N 36°08' W 007°27'511.7
2017-Apr-12 15:29N 36°09' W 007°34'611.9
2017-Apr-12 14:59N 36°11' W 007°41'611.6
2017-Apr-12 14:30N 36°12' W 007°48'1211.4
2017-Apr-12 13:29N 36°15' W 008°02'1011.1
2017-Apr-12 12:32N 36°17' W 008°15'1811.2
2017-Apr-12 10:58N 36°21' W 008°36'611.2
2017-Apr-12 10:29N 36°22' W 008°42'511.1
2017-Apr-12 10:00N 36°23' W 008°49'611.3
2017-Apr-12 09:29N 36°25' W 008°56'511.2
2017-Apr-12 09:00N 36°26' W 009°02'611.2
2017-Apr-12 08:30N 36°28' W 009°09'611.4
2017-Apr-12 08:00N 36°29' W 009°16'510.6
2017-Apr-12 07:30N 36°31' W 009°22'611.9
2017-Apr-12 07:00N 36°36' W 009°27'911.9
2017-Apr-12 06:15N 36°43' W 009°34'311.8
2017-Apr-12 05:59N 36°45' W 009°37'611.5
2017-Apr-12 05:29N 36°50' W 009°39'711.8
2017-Apr-12 04:55N 36°57' W 009°41'611.7
2017-Apr-12 04:26N 37°02' W 009°43'511.7
2017-Apr-12 04:00N 37°07' W 009°44'611.9
2017-Apr-12 03:30N 37°13' W 009°46'611.6
2017-Apr-12 02:57N 37°19' W 009°48'511.7
2017-Apr-12 02:30N 37°24' W 009°49'611.7
2017-Apr-12 02:00N 37°30' W 009°51'611.9
2017-Apr-12 01:31N 37°36' W 009°53'611.7
2017-Apr-12 01:00N 37°42' W 009°54'611.7
2017-Apr-12 00:30N 37°47' W 009°56'611.8
2017-Apr-12 00:00N 37°53' W 009°58'611.7
2017-Apr-11 23:31N 37°59' W 009°59'611.9
2017-Apr-11 23:00N 38°05' W 010°01'611.8
2017-Apr-11 22:30N 38°10' W 010°03'612.0
2017-Apr-11 22:00N 38°16' W 010°04'612.0
2017-Apr-11 21:30N 38°22' W 010°06'611.6
2017-Apr-11 21:00N 38°28' W 010°08'611.5
2017-Apr-11 20:30N 38°33' W 010°09'611.6
2017-Apr-11 20:00N 38°39' W 010°11'611.4
2017-Apr-11 19:30N 38°45' W 010°12'611.7
2017-Apr-11 19:01N 38°50' W 010°12'612.1
2017-Apr-11 18:30N 38°56' W 010°12'612.3
2017-Apr-11 18:01N 39°03' W 010°12'612.0
2017-Apr-11 17:30N 39°09' W 010°12'611.7
2017-Apr-11 17:00N 39°14' W 010°12'612.6
2017-Apr-11 16:30N 39°21' W 010°12'612.4
2017-Apr-11 16:01N 39°27' W 010°13'612.1
2017-Apr-11 15:31N 39°33' W 010°13'612.5
2017-Apr-11 15:00N 39°39' W 010°12'612.5
2017-Apr-11 14:30N 39°45' W 010°12'1312.6
2017-Apr-11 13:30N 39°58' W 010°12'612.5
2017-Apr-11 13:00N 40°04' W 010°12'712.7
2017-Apr-11 12:26N 40°12' W 010°12'512.4
2017-Apr-11 12:00N 40°17' W 010°12'612.5
2017-Apr-11 11:30N 40°23' W 010°12'713.0
2017-Apr-11 11:00N 40°30' W 010°12'612.8
2017-Apr-11 10:30N 40°36' W 010°12'612.7
2017-Apr-11 10:01N 40°42' W 010°11'1513.1
2017-Apr-11 08:52N 40°57' W 010°11'  
Track history (hours):
 
Tides and Currents Weather Stations Pressure Air Temp Water Temp Dewpoint Dewpoint Depression Visibility Wind Speed Wind Dir Waves Ship Positions

Ottoman Nobility

Last reported at 2017-Apr-20 08:04 UTC. Time now 2017-Apr-26 19:46 UTC.
Position N 30°52' E 032°19'.

; draft 15.7 m.

Type: Ship. MMSI: 271000773.

Date/timePositionNaut miles runAvg speedWind from/ knotsBaromVisibWave heightAir tempDewpointWater temp
2017-Apr-20 08:04N 30°52' E 032°19'1 9.0
2017-Apr-20 08:01N 30°53' E 032°19'  
2017-Apr-16 12:41N 36°16' E 015°02'212.1
2017-Apr-16 12:30N 36°17' E 014°60'612.1
2017-Apr-16 12:00N 36°19' E 014°52'712.1
2017-Apr-16 11:27N 36°21' E 014°45'511.9
2017-Apr-16 11:00N 36°23' E 014°39'611.8
2017-Apr-16 10:30N 36°25' E 014°32'611.8
2017-Apr-16 10:00N 36°26' E 014°25'612.0
2017-Apr-16 09:30N 36°28' E 014°17'611.9
2017-Apr-16 09:00N 36°30' E 014°10'612.0
2017-Apr-16 08:30N 36°31' E 014°03'712.2
2017-Apr-16 07:56N 36°34' E 013°55'512.2
2017-Apr-16 07:30N 36°35' E 013°49'611.9
2017-Apr-16 07:00N 36°37' E 013°42'611.7
2017-Apr-16 06:30N 36°39' E 013°35'611.6
2017-Apr-16 06:00N 36°40' E 013°28'611.4
2017-Apr-16 05:28N 36°42' E 013°20'511.6
2017-Apr-16 05:00N 36°44' E 013°14'611.8
2017-Apr-16 04:29N 36°46' E 013°07'812.1
2017-Apr-16 03:50N 36°48' E 012°57'512.1
2017-Apr-16 03:26N 36°49' E 012°52'512.2
2017-Apr-16 03:00N 36°51' E 012°45'912.4
2017-Apr-16 02:18N 36°53' E 012°35'712.3
2017-Apr-16 01:43N 36°56' E 012°26'312.1
2017-Apr-16 01:30N 36°57' E 012°23'611.9
2017-Apr-16 01:00N 36°59' E 012°16'611.6
2017-Apr-16 00:30N 36°59' E 012°09'611.7
2017-Apr-16 00:00N 37°02' E 012°02'3011.8
2017-Apr-15 21:29N 37°15' E 011°29'611.8
2017-Apr-15 21:00N 37°17' E 011°22'611.9
2017-Apr-15 20:30N 37°20' E 011°16'1211.7
2017-Apr-15 19:31N 37°24' E 011°02'011.6
2017-Apr-15 19:29N 37°24' E 011°02'611.6
2017-Apr-15 19:00N 37°25' E 010°55'611.4
2017-Apr-15 18:29N 37°27' E 010°48'611.3
2017-Apr-15 18:00N 37°29' E 010°41'711.3
2017-Apr-15 17:24N 37°30' E 010°33'611.6
2017-Apr-15 16:54N 37°32' E 010°26'4611.7
2017-Apr-15 12:56N 37°38' E 009°28'512.2
2017-Apr-15 12:29N 37°40' E 009°21'2312.2
2017-Apr-15 10:35N 37°44' E 008°52'312.0
2017-Apr-15 10:20N 37°43' E 008°49'412.0
2017-Apr-15 09:59N 37°42' E 008°44'611.9
2017-Apr-15 09:30N 37°41' E 008°36'612.0
2017-Apr-15 09:00N 37°41' E 008°29'911.9
2017-Apr-15 08:16N 37°40' E 008°18'10911.9
2017-Apr-14 23:10N 37°31' E 006°01'211.8
2017-Apr-14 23:00N 37°31' E 005°59'1012.0
2017-Apr-14 22:09N 37°30' E 005°46'9112.0
2017-Apr-14 14:33N 37°21' E 003°51'112.2
2017-Apr-14 14:30N 37°21' E 003°51'1312.1
2017-Apr-14 13:25N 37°19' E 003°34'612.2
2017-Apr-14 12:57N 37°18' E 003°27'612.2
2017-Apr-14 12:30N 37°16' E 003°21'612.1
2017-Apr-14 12:00N 37°15' E 003°13'612.2
2017-Apr-14 11:30N 37°14' E 003°06'612.1
2017-Apr-14 11:00N 37°13' E 002°58'611.8
2017-Apr-14 10:30N 37°12' E 002°51'611.7
2017-Apr-14 10:00N 37°10' E 002°44'611.8
2017-Apr-14 09:30N 37°09' E 002°37'612.1
2017-Apr-14 09:00N 37°08' E 002°29'612.2
2017-Apr-14 08:30N 37°07' E 002°22'612.3
2017-Apr-14 08:00N 37°06' E 002°14'612.3
2017-Apr-14 07:30N 37°04' E 002°07'612.3
2017-Apr-14 07:00N 37°03' E 001°59'912.3
2017-Apr-14 06:16N 37°02' E 001°48'312.2
2017-Apr-14 06:00N 37°01' E 001°44'712.2
2017-Apr-14 05:28N 36°60' E 001°36'612.1
2017-Apr-14 05:00N 36°58' E 001°29'612.1
2017-Apr-14 04:30N 36°57' E 001°22'612.1
2017-Apr-14 04:00N 36°56' E 001°14'612.1
2017-Apr-14 03:30N 36°54' E 001°07'612.0
2017-Apr-14 03:00N 36°53' E 000°60'612.4
2017-Apr-14 02:30N 36°52' E 000°52'612.7
2017-Apr-14 02:00N 36°52' E 000°44'612.7
2017-Apr-14 01:30N 36°51' E 000°36'612.5
2017-Apr-14 01:00N 36°50' E 000°29'612.3
2017-Apr-14 00:30N 36°48' E 000°21'612.4
2017-Apr-13 23:59N 36°47' E 000°13'612.1
2017-Apr-13 23:30N 36°45' E 000°06'3911.7
2017-Apr-13 20:13N 36°37' W 000°41'312.0
2017-Apr-13 19:58N 36°36' W 000°44'4911.8
2017-Apr-13 15:47N 36°26' W 001°45'511.2
2017-Apr-13 15:19N 36°25' W 001°51'411.2
2017-Apr-13 14:59N 36°24' W 001°55'9611.5
2017-Apr-13 06:35N 36°10' W 003°54'112.6
2017-Apr-13 06:30N 36°10' W 003°55'612.6
2017-Apr-13 06:00N 36°09' W 004°02'612.8
2017-Apr-13 05:31N 36°08' W 004°10'612.9
2017-Apr-13 05:01N 36°07' W 004°18'612.8
2017-Apr-13 04:30N 36°06' W 004°26'612.4
2017-Apr-13 04:00N 36°06' W 004°34'2012.4
2017-Apr-13 02:25N 36°02' W 004°58'512.9
2017-Apr-13 02:00N 36°01' W 005°04'713.9
2017-Apr-13 01:31N 36°01' W 005°13'713.5
2017-Apr-13 01:00N 35°58' W 005°21'613.1
2017-Apr-13 00:31N 35°57' W 005°28'612.4
2017-Apr-13 00:00N 35°55' W 005°36'510.8
2017-Apr-12 23:30N 35°54' W 005°42'5 9.6
2017-Apr-12 23:00N 35°54' W 005°48'710.4
2017-Apr-12 22:17N 35°54' W 005°57'3711.6
2017-Apr-12 19:04N 35°59' W 006°43'1111.9
2017-Apr-12 18:07N 36°02' W 006°57'111.9
2017-Apr-12 18:00N 36°03' W 006°58'711.8
2017-Apr-12 17:25N 36°04' W 007°07'511.5
2017-Apr-12 16:59N 36°05' W 007°13'811.8
2017-Apr-12 16:18N 36°07' W 007°23'411.7
2017-Apr-12 15:57N 36°08' W 007°27'511.7
2017-Apr-12 15:29N 36°09' W 007°34'611.9
2017-Apr-12 14:59N 36°11' W 007°41'611.6
2017-Apr-12 14:30N 36°12' W 007°48'1211.4
2017-Apr-12 13:29N 36°15' W 008°02'1011.1
2017-Apr-12 12:32N 36°17' W 008°15'1811.2
2017-Apr-12 10:58N 36°21' W 008°36'611.2
2017-Apr-12 10:29N 36°22' W 008°42'511.1
2017-Apr-12 10:00N 36°23' W 008°49'611.3
2017-Apr-12 09:29N 36°25' W 008°56'511.2
2017-Apr-12 09:00N 36°26' W 009°02'611.2
2017-Apr-12 08:30N 36°28' W 009°09'611.4
2017-Apr-12 08:00N 36°29' W 009°16'510.6
2017-Apr-12 07:30N 36°31' W 009°22'611.9
2017-Apr-12 07:00N 36°36' W 009°27'911.9
2017-Apr-12 06:15N 36°43' W 009°34'311.8
2017-Apr-12 05:59N 36°45' W 009°37'611.5
2017-Apr-12 05:29N 36°50' W 009°39'711.8
2017-Apr-12 04:55N 36°57' W 009°41'611.7
2017-Apr-12 04:26N 37°02' W 009°43'511.7
2017-Apr-12 04:00N 37°07' W 009°44'611.9
2017-Apr-12 03:30N 37°13' W 009°46'611.6
2017-Apr-12 02:57N 37°19' W 009°48'511.7
2017-Apr-12 02:30N 37°24' W 009°49'611.7
2017-Apr-12 02:00N 37°30' W 009°51'611.9
2017-Apr-12 01:31N 37°36' W 009°53'611.7
2017-Apr-12 01:00N 37°42' W 009°54'611.7
2017-Apr-12 00:30N 37°47' W 009°56'611.8
2017-Apr-12 00:00N 37°53' W 009°58'611.7
2017-Apr-11 23:31N 37°59' W 009°59'611.9
2017-Apr-11 23:00N 38°05' W 010°01'611.8
2017-Apr-11 22:30N 38°10' W 010°03'612.0
2017-Apr-11 22:00N 38°16' W 010°04'612.0
2017-Apr-11 21:30N 38°22' W 010°06'611.6
2017-Apr-11 21:00N 38°28' W 010°08'611.5
2017-Apr-11 20:30N 38°33' W 010°09'611.6
2017-Apr-11 20:00N 38°39' W 010°11'611.4
2017-Apr-11 19:30N 38°45' W 010°12'611.7
2017-Apr-11 19:01N 38°50' W 010°12'612.1
2017-Apr-11 18:30N 38°56' W 010°12'612.3
2017-Apr-11 18:01N 39°03' W 010°12'612.0
2017-Apr-11 17:30N 39°09' W 010°12'611.7
2017-Apr-11 17:00N 39°14' W 010°12'612.6
2017-Apr-11 16:30N 39°21' W 010°12'612.4
2017-Apr-11 16:01N 39°27' W 010°13'612.1
2017-Apr-11 15:31N 39°33' W 010°13'612.5
2017-Apr-11 15:00N 39°39' W 010°12'612.5
2017-Apr-11 14:30N 39°45' W 010°12'1312.6
2017-Apr-11 13:30N 39°58' W 010°12'612.5
2017-Apr-11 13:00N 40°04' W 010°12'712.7
2017-Apr-11 12:26N 40°12' W 010°12'512.4
2017-Apr-11 12:00N 40°17' W 010°12'612.5
2017-Apr-11 11:30N 40°23' W 010°12'713.0
2017-Apr-11 11:00N 40°30' W 010°12'612.8
2017-Apr-11 10:30N 40°36' W 010°12'612.7
2017-Apr-11 10:01N 40°42' W 010°11'1513.1
2017-Apr-11 08:52N 40°57' W 010°11'  

Dump ship's entire track history